createdAt,value
2019-02-26T00:01:23.462Z,54.83
2019-02-26T00:03:51.669Z,54.48
2019-02-26T00:06:21.109Z,54.35
2019-02-26T00:08:53.255Z,54.41
2019-02-26T00:11:24.358Z,54.75
2019-02-26T00:13:52.412Z,54.43
2019-02-26T00:16:22.316Z,54.51
2019-02-26T00:18:50.909Z,55.19
2019-02-26T00:21:22.004Z,54.35
2019-02-26T00:23:51.409Z,54.24
2019-02-26T00:26:22.334Z,55.01
2019-02-26T00:28:51.028Z,54.65
2019-02-26T00:31:21.532Z,54.57
2019-02-26T00:33:49.973Z,54.76
2019-02-26T00:36:18.619Z,54.51
2019-02-26T00:38:47.276Z,54.63
2019-02-26T00:41:15.865Z,54.83
2019-02-26T00:43:44.444Z,54.80
2019-02-26T00:46:13.027Z,55.23
2019-02-26T00:48:43.128Z,55.57
2019-02-26T00:51:11.760Z,55.27
2019-02-26T00:53:40.348Z,55.06
2019-02-26T00:56:10.321Z,55.13
2019-02-26T00:58:41.516Z,54.87
2019-02-26T01:01:10.657Z,54.75
2019-02-26T01:03:42.390Z,54.83
2019-02-26T01:06:10.757Z,54.59
2019-02-26T01:08:40.266Z,54.63
2019-02-26T01:11:10.037Z,54.57
2019-02-26T01:13:38.614Z,54.58
2019-02-26T01:16:07.428Z,54.96
2019-02-26T01:18:36.008Z,54.88
2019-02-26T01:21:04.599Z,54.93
2019-02-26T01:23:33.404Z,54.74
2019-02-26T01:26:01.998Z,54.37
2019-02-26T01:28:30.829Z,54.53
2019-02-26T01:31:00.286Z,54.71
2019-02-26T01:33:31.927Z,54.74
2019-02-26T01:36:02.565Z,54.28
2019-02-26T01:38:30.637Z,54.29
2019-02-26T01:40:59.241Z,54.60
2019-02-26T01:43:27.882Z,54.58
2019-02-26T01:45:56.457Z,54.54
2019-02-26T01:48:25.069Z,54.44
2019-02-26T01:50:54.421Z,54.16
2019-02-26T01:53:24.260Z,54.39
2019-02-26T01:55:53.161Z,54.61
2019-02-26T01:58:21.990Z,55.15
2019-02-26T02:00:50.584Z,55.51
2019-02-26T02:03:20.844Z,55.38
2019-02-26T02:05:52.466Z,55.10
2019-02-26T02:08:22.544Z,54.53
2019-02-26T02:10:53.651Z,54.73
2019-02-26T02:13:26.076Z,55.39
2019-02-26T02:15:52.055Z,54.83
2019-02-26T02:18:22.946Z,54.97
2019-02-26T02:20:51.266Z,54.79
2019-02-26T02:23:21.239Z,54.69
2019-02-26T02:25:50.388Z,55.02
2019-02-26T02:28:19.583Z,55.07
2019-02-26T02:30:49.524Z,54.97
2019-02-26T02:33:23.593Z,55.23
2019-02-26T02:35:48.397Z,54.90
2019-02-26T02:38:20.514Z,55.51
2019-02-26T02:40:49.611Z,55.49
2019-02-26T02:43:20.317Z,55.19
2019-02-26T02:45:49.816Z,55.23
2019-02-26T02:48:18.307Z,55.19
2019-02-26T02:50:47.142Z,54.88
2019-02-26T02:53:17.766Z,54.49
2019-02-26T02:55:47.066Z,54.74
2019-02-26T02:58:18.318Z,55.02
2019-02-26T03:00:49.349Z,55.59
2019-02-26T03:03:17.691Z,56.04
2019-02-26T03:05:46.563Z,55.63
2019-02-26T03:08:16.454Z,55.08
2019-02-26T03:10:45.777Z,54.91
2019-02-26T03:13:16.825Z,54.93
2019-02-26T03:15:47.375Z,55.24
2019-02-26T03:18:16.867Z,54.71
2019-02-26T03:20:45.508Z,55.33
2019-02-26T03:23:16.850Z,55.02
2019-02-26T03:25:47.202Z,55.06
2019-02-26T03:28:15.254Z,54.60
2019-02-26T03:30:44.657Z,55.11
2019-02-26T03:33:13.453Z,55.63
2019-02-26T03:35:42.057Z,55.16
2019-02-26T03:38:10.651Z,54.84
2019-02-26T03:40:39.258Z,54.94
2019-02-26T03:43:10.220Z,54.54
2019-02-26T03:45:38.199Z,54.47
2019-02-26T03:48:07.033Z,54.86
2019-02-26T03:50:35.697Z,55.07
2019-02-26T03:53:08.974Z,54.94
2019-02-26T03:55:36.114Z,55.12
2019-02-26T03:58:05.733Z,55.11
2019-02-26T04:00:35.584Z,55.09
2019-02-26T04:03:05.966Z,54.94
2019-02-26T04:05:34.973Z,54.76
2019-02-26T04:08:04.448Z,54.83
2019-02-26T04:10:33.096Z,54.97
2019-02-26T04:13:01.674Z,55.15
2019-02-26T04:15:32.806Z,54.69
2019-02-26T04:18:00.869Z,54.61
2019-02-26T04:20:29.702Z,54.62
2019-02-26T04:22:58.518Z,54.49
2019-02-26T04:25:36.713Z,54.73
2019-02-26T04:28:11.576Z,54.44
2019-02-26T04:31:18.699Z,54.83
2019-02-26T04:34:16.651Z,55.28
2019-02-26T04:37:17.599Z,54.96
2019-02-26T04:40:14.226Z,54.70
2019-02-26T04:43:17.602Z,55.33
2019-02-26T04:46:19.979Z,55.17
2019-02-26T04:48:48.699Z,54.71
2019-02-26T04:51:17.383Z,55.07
2019-02-26T04:53:48.607Z,55.12
2019-02-26T04:56:16.383Z,55.05
2019-02-26T04:58:45.919Z,55.05
2019-02-26T05:01:16.421Z,55.08
2019-02-26T05:03:45.735Z,54.92
2019-02-26T05:06:14.304Z,55.12
2019-02-26T05:08:42.997Z,54.79
2019-02-26T05:11:14.873Z,54.45
2019-02-26T05:13:41.907Z,54.31
2019-02-26T05:16:10.496Z,54.87
2019-02-26T05:18:39.372Z,55.03
2019-02-26T05:21:10.235Z,54.03
2019-02-26T05:23:38.595Z,54.34
2019-02-26T05:26:08.247Z,54.57
2019-02-26T05:28:40.707Z,54.63
2019-02-26T05:31:09.063Z,54.55
2019-02-26T05:33:38.555Z,54.65
2019-02-26T05:36:09.418Z,55.18
2019-02-26T05:38:38.039Z,54.59
2019-02-26T05:41:06.618Z,54.61
2019-02-26T05:43:35.211Z,54.86
2019-02-26T05:46:04.155Z,54.76
2019-02-26T05:48:32.705Z,54.56
2019-02-26T05:51:03.586Z,54.52
2019-02-26T05:53:31.828Z,54.89
2019-02-26T05:56:00.557Z,54.99
2019-02-26T05:58:29.173Z,54.46
2019-02-26T06:00:57.844Z,54.47
2019-02-26T06:03:26.475Z,54.56
2019-02-26T06:05:57.661Z,55.12
2019-02-26T06:08:29.143Z,54.92
2019-02-26T06:10:56.009Z,55.06
2019-02-26T06:13:24.647Z,56.21
2019-02-26T06:15:55.131Z,56.00
2019-02-26T06:18:23.702Z,55.96
2019-02-26T06:20:53.540Z,55.42
2019-02-26T06:23:25.316Z,55.62
2019-02-26T06:25:56.022Z,55.34
2019-02-26T06:28:25.133Z,55.09
2019-02-26T06:30:55.112Z,55.29
2019-02-26T06:33:24.041Z,55.15
2019-02-26T06:35:52.724Z,55.43
2019-02-26T06:38:23.321Z,55.32
2019-02-26T06:40:51.800Z,54.80
2019-02-26T06:43:20.454Z,54.97
2019-02-26T06:45:49.152Z,55.20
2019-02-26T06:48:20.914Z,54.76
2019-02-26T06:50:49.127Z,56.13
2019-02-26T06:53:19.313Z,55.30
2019-02-26T06:55:48.089Z,55.80
2019-02-26T06:58:24.260Z,54.86
2019-02-26T07:00:55.364Z,54.49
2019-02-26T07:03:24.799Z,55.00
2019-02-26T07:05:53.593Z,55.97
2019-02-26T07:08:24.197Z,56.05
2019-02-26T07:10:52.578Z,55.98
2019-02-26T07:13:21.394Z,56.15
2019-02-26T07:15:50.262Z,54.71
2019-02-26T07:18:19.650Z,54.33
2019-02-26T07:20:52.011Z,53.23
2019-02-26T07:23:18.759Z,53.41
2019-02-26T07:25:47.465Z,53.49
2019-02-26T07:28:17.674Z,53.06
2019-02-26T07:30:46.957Z,52.67
2019-02-26T07:33:16.078Z,52.47
2019-02-26T07:35:44.704Z,52.82
2019-02-26T07:38:13.328Z,51.96
2019-02-26T07:40:42.063Z,51.72
2019-02-26T07:43:14.425Z,52.16
2019-02-26T07:45:41.269Z,54.58
2019-02-26T07:48:09.955Z,53.74
2019-02-26T07:50:40.927Z,52.77
2019-02-26T07:53:09.301Z,52.28
2019-02-26T07:55:40.078Z,52.23
2019-02-26T07:58:09.391Z,52.13
2019-02-26T08:00:40.304Z,51.82
2019-02-26T08:03:09.503Z,51.21
2019-02-26T08:05:38.333Z,50.98
2019-02-26T08:08:07.092Z,50.87
2019-02-26T08:10:39.405Z,51.71
2019-02-26T08:13:07.966Z,50.81
2019-02-26T08:15:37.526Z,50.64
2019-02-26T08:18:06.958Z,49.03
2019-02-26T08:20:37.576Z,48.54
2019-02-26T08:23:06.546Z,47.65
2019-02-26T08:25:35.594Z,45.94
2019-02-26T08:28:05.695Z,44.85
2019-02-26T08:30:34.841Z,43.92
2019-02-26T08:33:05.282Z,44.30
2019-02-26T08:35:34.218Z,42.65
2019-02-26T08:38:05.661Z,42.91
2019-02-26T08:40:33.615Z,43.71
2019-02-26T08:43:02.311Z,44.40
2019-02-26T08:45:31.300Z,43.30
2019-02-26T08:48:00.094Z,41.94
2019-02-26T08:50:33.108Z,40.98
2019-02-26T08:52:59.330Z,40.59
2019-02-26T08:55:28.184Z,40.20
2019-02-26T08:57:56.890Z,38.65
2019-02-26T09:00:25.727Z,36.19
2019-02-26T09:02:56.562Z,32.85
2019-02-26T09:05:26.309Z,27.40
2019-02-26T09:07:55.315Z,24.92
2019-02-26T09:10:23.892Z,23.45
2019-02-26T09:12:52.588Z,21.77
2019-02-26T09:15:21.427Z,22.04
2019-02-26T09:17:50.263Z,21.59
2019-02-26T09:20:18.891Z,20.63
2019-02-26T09:22:50.195Z,19.94
2019-02-26T09:25:20.030Z,19.89
2019-02-26T09:27:48.336Z,18.48
2019-02-26T09:30:17.005Z,18.62
2019-02-26T09:32:45.670Z,18.00
2019-02-26T09:35:16.885Z,16.94
2019-02-26T09:37:47.330Z,16.54
2019-02-26T09:40:17.127Z,16.22
2019-02-26T09:42:47.963Z,15.63
2019-02-26T09:45:18.698Z,16.24
2019-02-26T09:47:49.707Z,14.06
2019-02-26T09:50:20.708Z,14.15
2019-02-26T09:52:50.819Z,13.70
2019-02-26T09:55:19.552Z,13.47
2019-02-26T09:57:48.370Z,14.42
2019-02-26T10:00:20.311Z,15.74
2019-02-26T10:02:49.481Z,13.93
2019-02-26T10:05:18.845Z,14.29
2019-02-26T10:07:47.670Z,14.85
2019-02-26T10:10:17.117Z,14.18
2019-02-26T10:12:45.901Z,12.53
2019-02-26T10:15:15.055Z,11.70
2019-02-26T10:17:45.198Z,10.87
2019-02-26T10:20:17.817Z,10.69
2019-02-26T10:22:47.497Z,10.73
2019-02-26T10:25:16.348Z,11.26
2019-02-26T10:27:45.442Z,12.07
2019-02-26T10:30:16.265Z,13.55
2019-02-26T10:32:46.775Z,13.06
2019-02-26T10:35:19.444Z,12.43
2019-02-26T10:37:51.568Z,12.23
2019-02-26T10:40:20.261Z,12.95
2019-02-26T10:42:49.052Z,13.32
2019-02-26T10:45:18.748Z,13.15
2019-02-26T10:47:48.902Z,12.49
2019-02-26T10:50:19.537Z,12.36
2019-02-26T10:52:48.722Z,12.78
2019-02-26T10:55:18.366Z,11.45
2019-02-26T10:57:47.928Z,11.89
2019-02-26T11:00:22.597Z,10.42
2019-02-26T11:02:54.099Z,9.18
2019-02-26T11:05:26.196Z,9.64
2019-02-26T11:07:55.313Z,10.84
2019-02-26T11:10:25.217Z,12.32
2019-02-26T11:12:56.257Z,12.92
2019-02-26T11:15:26.703Z,12.85
2019-02-26T11:17:55.832Z,13.26
2019-02-26T11:20:27.681Z,13.17
2019-02-26T11:22:54.980Z,14.00
2019-02-26T11:25:24.843Z,13.78
2019-02-26T11:27:54.048Z,13.67
2019-02-26T11:30:23.908Z,13.59
2019-02-26T11:32:56.041Z,12.50
2019-02-26T11:35:24.701Z,12.37
2019-02-26T11:37:57.323Z,12.33
2019-02-26T11:40:27.381Z,12.87
2019-02-26T11:42:55.568Z,12.62
2019-02-26T11:45:24.588Z,9.19
2019-02-26T11:47:55.767Z,11.20
2019-02-26T11:50:27.973Z,11.55
2019-02-26T11:52:55.200Z,10.87
2019-02-26T11:55:26.189Z,11.12
2019-02-26T11:57:54.059Z,10.27
2019-02-26T12:00:39.914Z,9.32
2019-02-26T12:03:07.804Z,8.56
2019-02-26T12:05:38.900Z,8.06
2019-02-26T12:08:06.867Z,8.37
2019-02-26T12:10:37.890Z,9.05
2019-02-26T12:13:05.903Z,9.97
2019-02-26T12:15:36.310Z,9.82
2019-02-26T12:18:05.496Z,9.27
2019-02-26T12:20:35.583Z,7.96
2019-02-26T12:23:07.787Z,7.57
2019-02-26T12:25:35.281Z,6.97
2019-02-26T12:28:05.390Z,7.84
2019-02-26T12:30:34.933Z,8.82
2019-02-26T12:33:04.634Z,6.67
2019-02-26T12:35:35.479Z,6.85
2019-02-26T12:38:17.368Z,7.08
2019-02-26T12:40:37.183Z,6.84
2019-02-26T12:43:06.567Z,7.21
2019-02-26T12:45:38.677Z,6.93
2019-02-26T12:48:06.525Z,6.67
2019-02-26T12:50:37.440Z,6.82
2019-02-26T12:53:09.534Z,7.67
2019-02-26T12:55:38.443Z,7.65
2019-02-26T12:58:07.292Z,7.88
2019-02-26T13:00:38.344Z,7.66
2019-02-26T13:03:09.384Z,7.83
2019-02-26T13:05:39.234Z,7.70
2019-02-26T13:08:10.047Z,8.59
2019-02-26T13:10:38.652Z,8.80
2019-02-26T13:13:08.178Z,8.57
2019-02-26T13:15:36.751Z,9.68
2019-02-26T13:18:05.431Z,9.91
2019-02-26T13:20:34.121Z,11.77
2019-02-26T13:23:16.436Z,12.67
2019-02-26T13:25:33.052Z,13.68
2019-02-26T13:28:01.656Z,14.48
2019-02-26T13:30:30.261Z,15.15
2019-02-26T13:33:00.853Z,15.17
2019-02-26T13:35:29.211Z,14.83
2019-02-26T13:37:57.913Z,15.33
2019-02-26T13:40:27.483Z,15.39
2019-02-26T13:45:29.302Z,15.33
2019-02-26T13:48:01.336Z,15.52
2019-02-26T13:50:28.760Z,15.91
2019-02-26T13:52:57.694Z,17.24
2019-02-26T13:55:26.465Z,16.99
2019-02-26T13:57:55.100Z,16.75
2019-02-26T14:00:26.763Z,16.66
2019-02-26T14:02:54.394Z,17.30
2019-02-26T14:05:23.103Z,17.40
2019-02-26T14:07:51.782Z,17.63
2019-02-26T14:10:21.614Z,17.45
2019-02-26T14:12:50.367Z,17.28
2019-02-26T14:15:21.154Z,18.44
2019-02-26T14:17:49.995Z,18.02
2019-02-26T14:20:18.676Z,17.74
2019-02-26T14:22:47.331Z,17.84
2019-02-26T14:25:16.468Z,17.70
2019-02-26T14:27:45.154Z,18.10
2019-02-26T14:30:14.487Z,18.33
2019-02-26T14:32:43.083Z,18.46
2019-02-26T14:35:12.389Z,19.47
2019-02-26T14:37:41.106Z,18.65
2019-02-26T14:40:11.166Z,18.34
2019-02-26T14:42:39.829Z,18.28
2019-02-26T14:45:10.776Z,18.15
2019-02-26T14:47:39.536Z,18.40
2019-02-26T14:50:10.370Z,18.55
2019-02-26T14:52:39.350Z,18.69
2019-02-26T14:55:08.427Z,18.11
2019-02-26T14:57:37.119Z,18.06
2019-02-26T15:00:09.128Z,17.97
2019-02-26T15:02:37.918Z,17.46
2019-02-26T15:05:06.761Z,17.08
2019-02-26T15:07:35.422Z,16.91
2019-02-26T15:10:04.674Z,16.88
2019-02-26T15:12:33.285Z,17.37
2019-02-26T15:15:01.933Z,16.94
2019-02-26T15:17:31.065Z,16.91
2019-02-26T15:20:00.517Z,16.73
2019-02-26T15:22:29.265Z,17.11
2019-02-26T15:24:58.101Z,17.23
2019-02-26T15:27:35.979Z,16.82
2019-02-26T15:29:59.581Z,16.42
2019-02-26T15:32:28.379Z,16.68
2019-02-26T15:34:57.623Z,16.45
2019-02-26T15:37:26.675Z,16.42
2019-02-26T15:39:55.731Z,16.29
2019-02-26T15:42:24.851Z,16.17
2019-02-26T15:44:53.646Z,15.85
2019-02-26T15:47:22.411Z,16.30
2019-02-26T15:49:51.013Z,15.95
2019-02-26T15:52:22.217Z,15.47
2019-02-26T15:54:50.445Z,15.20
2019-02-26T15:57:19.097Z,15.06
2019-02-26T15:59:47.796Z,15.27
2019-02-26T16:02:16.446Z,15.01
2019-02-26T16:04:45.260Z,15.42
2019-02-26T16:07:13.978Z,15.08
2019-02-26T16:09:42.563Z,14.76
2019-02-26T16:12:11.264Z,14.81
2019-02-26T16:14:39.880Z,18.27
2019-02-26T16:17:09.649Z,19.93
2019-02-26T16:19:38.234Z,21.69
2019-02-26T16:22:06.932Z,21.57
2019-02-26T16:24:35.772Z,22.05
2019-02-26T16:27:04.670Z,23.64
2019-02-26T16:29:33.547Z,25.03
2019-02-26T16:32:02.730Z,26.69
2019-02-26T16:34:32.607Z,27.49
2019-02-26T16:37:03.315Z,28.89
2019-02-26T16:39:31.489Z,29.08
2019-02-26T16:42:00.254Z,29.39
2019-02-26T16:44:29.598Z,28.40
2019-02-26T16:46:58.199Z,28.02
2019-02-26T16:49:27.868Z,27.67
2019-02-26T16:51:56.563Z,27.80
2019-02-26T16:54:26.493Z,29.40
2019-02-26T16:56:55.517Z,30.27
2019-02-26T16:59:24.172Z,29.34
2019-02-26T17:01:54.950Z,30.35
2019-02-26T17:04:24.108Z,31.10
2019-02-26T17:06:53.925Z,30.84
2019-02-26T17:09:23.105Z,30.53
2019-02-26T17:11:53.007Z,29.54
2019-02-26T17:14:21.839Z,29.19
2019-02-26T17:16:50.661Z,30.50
2019-02-26T17:19:19.553Z,30.35
2019-02-26T17:21:48.203Z,30.94
2019-02-26T17:24:18.444Z,29.06
2019-02-26T17:26:47.481Z,30.40
2019-02-26T17:29:16.900Z,31.93
2019-02-26T17:31:46.396Z,31.93
2019-02-26T17:34:15.103Z,31.24
2019-02-26T17:36:43.731Z,31.98
2019-02-26T17:39:12.549Z,31.23
2019-02-26T17:41:44.649Z,30.65
2019-02-26T17:44:11.632Z,32.36
2019-02-26T17:46:40.524Z,33.89
2019-02-26T17:49:09.124Z,33.51
2019-02-26T17:51:37.785Z,33.33
2019-02-26T17:54:06.501Z,34.17
2019-02-26T17:56:35.745Z,33.49
2019-02-26T17:59:05.064Z,34.48
2019-02-26T18:01:33.789Z,34.48
2019-02-26T18:04:02.581Z,33.94
2019-02-26T18:06:31.394Z,34.34
2019-02-26T18:09:01.071Z,34.34
2019-02-26T18:11:30.225Z,35.51
2019-02-26T18:14:00.181Z,35.56
2019-02-26T18:16:31.722Z,35.80
2019-02-26T18:19:00.176Z,36.25
2019-02-26T18:21:29.237Z,36.47
2019-02-26T18:23:57.954Z,37.41
2019-02-26T18:26:26.674Z,35.80
2019-02-26T18:28:55.294Z,36.24
2019-02-26T18:31:26.411Z,36.27
2019-02-26T18:33:54.438Z,37.02
2019-02-26T18:36:24.788Z,36.43
2019-02-26T18:38:53.504Z,36.13
2019-02-26T18:41:22.142Z,36.37
2019-02-26T18:43:50.752Z,36.64
2019-02-26T18:46:19.539Z,36.47
2019-02-26T18:48:48.822Z,36.92
2019-02-26T18:51:17.790Z,37.36
2019-02-26T18:53:47.739Z,36.84
2019-02-26T18:56:16.752Z,37.15
2019-02-26T18:58:46.660Z,37.34
2019-02-26T19:01:15.832Z,37.95
2019-02-26T19:03:44.548Z,38.04
2019-02-26T19:06:13.164Z,37.70
2019-02-26T19:08:41.824Z,38.48
2019-02-26T19:11:16.478Z,38.91
2019-02-26T19:13:41.283Z,38.00
2019-02-26T19:16:09.980Z,38.66
2019-02-26T19:18:38.653Z,37.94
2019-02-26T19:21:07.345Z,37.93
2019-02-26T19:23:35.937Z,38.61
2019-02-26T19:26:04.575Z,39.26
2019-02-26T19:28:33.432Z,39.70
2019-02-26T19:31:02.291Z,38.74
2019-02-26T19:33:30.926Z,39.07
2019-02-26T19:35:59.730Z,39.27
2019-02-26T19:38:28.400Z,39.75
2019-02-26T19:40:58.021Z,39.07
2019-02-26T19:43:28.705Z,39.46
2019-02-26T19:45:57.105Z,39.86
2019-02-26T19:48:25.820Z,39.42
2019-02-26T19:50:54.586Z,39.81
2019-02-26T19:53:24.188Z,39.07
2019-02-26T19:55:53.217Z,40.49
2019-02-26T19:58:21.771Z,40.22
2019-02-26T20:00:52.886Z,39.73
2019-02-26T20:03:20.961Z,38.96
2019-02-26T20:05:49.566Z,38.11
2019-02-26T20:08:18.174Z,39.88
2019-02-26T20:10:48.735Z,39.91
2019-02-26T20:13:17.324Z,39.21
2019-02-26T20:15:46.151Z,39.80
2019-02-26T20:18:20.680Z,39.95
2019-02-26T20:20:46.489Z,39.86
2019-02-26T20:23:15.151Z,39.56
2019-02-26T20:25:43.753Z,39.31
2019-02-26T20:28:12.327Z,39.54
2019-02-26T20:30:41.141Z,39.05
2019-02-26T20:33:10.027Z,39.61
2019-02-26T20:35:38.606Z,39.59
2019-02-26T20:38:07.183Z,39.47
2019-02-26T20:40:35.741Z,39.25
2019-02-26T20:43:05.384Z,39.04
2019-02-26T20:45:34.093Z,39.17
2019-02-26T20:48:04.239Z,39.92
2019-02-26T20:50:33.184Z,39.52
2019-02-26T20:53:05.674Z,39.19
2019-02-26T20:55:33.746Z,39.23
2019-02-26T21:25:57.313Z,38.90
2019-02-26T21:28:27.336Z,39.81
2019-02-26T21:30:56.026Z,39.08
2019-02-26T21:33:24.606Z,39.70
2019-02-26T21:35:54.207Z,39.76
2019-02-26T21:38:23.535Z,39.01
2019-02-26T21:40:52.190Z,39.73
2019-02-26T21:43:21.879Z,38.58
2019-02-26T21:45:50.570Z,39.27
2019-02-26T21:48:19.185Z,38.24
2019-02-26T21:50:48.830Z,39.11
2019-02-26T21:53:17.484Z,37.80
2019-02-26T21:55:46.276Z,38.21
2019-02-26T21:58:15.066Z,37.79
2019-02-26T22:00:43.755Z,39.25
2019-02-26T22:03:12.365Z,38.64
2019-02-26T22:05:41.263Z,40.38
2019-02-26T22:08:09.862Z,39.41
2019-02-26T22:10:40.221Z,39.31
2019-02-26T22:13:09.740Z,40.68
2019-02-26T22:15:38.368Z,40.14
2019-02-26T22:18:07.091Z,40.10
2019-02-26T22:20:36.593Z,39.88
2019-02-26T22:23:05.363Z,39.39
2019-02-26T22:25:34.028Z,39.50
2019-02-26T22:28:02.641Z,39.10
2019-02-26T22:30:31.228Z,39.51
2019-02-26T22:32:59.899Z,39.94
2019-02-26T22:35:28.587Z,39.95
2019-02-26T22:37:57.168Z,41.04
2019-02-26T22:40:28.947Z,40.82
2019-02-26T22:42:56.058Z,41.93
2019-02-26T22:45:27.677Z,40.37
2019-02-26T22:47:55.015Z,40.31
2019-02-26T22:50:24.938Z,39.77
2019-02-26T22:52:54.041Z,39.24
2019-02-26T22:55:22.672Z,40.06
2019-02-26T22:57:51.258Z,40.39
2019-02-26T23:00:48.333Z,39.66
2019-02-26T23:03:14.525Z,39.45
2019-02-26T23:05:43.182Z,39.40
2019-02-26T23:08:12.496Z,39.08
2019-02-26T23:10:41.229Z,38.94
2019-02-26T23:13:09.873Z,38.69
2019-02-26T23:15:38.487Z,39.69
2019-02-26T23:18:07.056Z,39.43
2019-02-26T23:20:35.786Z,40.26
2019-02-26T23:23:04.870Z,41.52
2019-02-26T23:25:33.659Z,40.60
2019-02-26T23:28:03.993Z,40.33
2019-02-26T23:30:32.822Z,40.37
2019-02-26T23:33:01.741Z,41.44
2019-02-26T23:35:30.441Z,40.55
2019-02-26T23:37:59.084Z,39.13
2019-02-26T23:40:28.124Z,38.66
2019-02-26T23:42:57.122Z,40.53
2019-02-26T23:45:25.947Z,39.22
2019-02-26T23:47:54.519Z,38.79
2019-02-26T23:50:23.132Z,39.22
2019-02-26T23:52:51.714Z,40.76
2019-02-26T23:55:20.360Z,39.38
2019-02-26T23:57:48.988Z,40.32
